• Join FlightAware (Why Join?)
  • Login
  • US Flag 
04:29PM EDT


 

Airport Tracker/Info


-or-


 

Live Flight TrackerFlight Track Log ✈ XOJ552 ✈ 25-Oct-2013 ✈ KVNY - KHTO

Flight Track Log - Related Links

Times and Time Zones

All times are in EDT time to prevent confusion due to time zone crossing. See the XOJ552 flight status page for this flight to view local times or setup timezone preferences in your user account.

Time Position Orientation Groundspeed Altitude Reporting Facility
EDT Latitude Longitude Course Direction KTS MPH feet Rate Location/Type
11:02AM 34.1833 -118.4833 140° Southeast 174 200 1,700  Level Southern California TRACON
11:02AM 34.1500 -118.4500 140° Southeast 212 244 4,200 3,000 Climbing Southern California TRACON
11:05AM 34.2889 -118.4217 10° North 277 319 11,800 3,120 Climbing Los Angeles Center
11:06AM 34.3672 -118.3811 23° Northeast 300 345 15,200 2,820 Climbing Los Angeles Center
11:07AM 34.4539 -118.3361 23° Northeast 335 386 17,700 2,400 Climbing Los Angeles Center
11:08AM 34.5094 -118.2317 57° Northeast 374 430 20,200 2,340 Climbing Los Angeles Center
11:09AM 34.5503 -118.0894 71° East 406 467 22,600 2,220 Climbing Los Angeles Center
11:10AM 34.5886 -117.9539 71° East 422 486 24,800 2,100 Climbing Los Angeles Center
11:11AM 34.6269 -117.8147 71° East 432 497 27,000 1,980 Climbing Los Angeles Center
11:12AM 34.6658 -117.6714 72° East 448 516 29,000 2,100 Climbing Los Angeles Center
11:13AM 34.7142 -117.4967 71° East 458 527 31,400 1,860 Climbing Los Angeles Center
11:14AM 34.7539 -117.3489 72° East 465 535 32,900 1,200 Climbing Los Angeles Center
11:15AM 34.7953 -117.1961 72° East 478 550 33,900 900 Climbing Los Angeles Center
11:16AM 34.8383 -117.0397 71° East 492 566 34,800 840 Climbing Los Angeles Center
11:17AM 34.9006 -116.8908 63° Northeast 501 577 35,700 1,200 Climbing Los Angeles Center
11:18AM 35.0078 -116.7386 49° Northeast 494 568 37,400 1,500 Climbing Los Angeles Center
11:19AM 35.0936 -116.6153 50° Northeast 486 559 38,900 1,200 Climbing Los Angeles Center
11:20AM 35.1756 -116.4961 50° Northeast 470 541 40,000 780 Climbing Los Angeles Center
11:21AM 35.2572 -116.3758 50° Northeast 462 532 40,600 480 Climbing Los Angeles Center
11:22AM 35.3408 -116.2547 50° Northeast 466 536 41,000 180 Climbing Los Angeles Center
11:24AM 35.4406 -116.1058 51° Northeast 472 543 41,000  Level Los Angeles Center
11:25AM 35.5256 -115.9842 49° Northeast 471 542 41,000  Level Los Angeles Center
11:26AM 35.6036 -115.8606 52° Northeast 467 537 41,000  Level Los Angeles Center
11:27AM 35.6414 -115.7058 73° East 473 544 41,000  Level Los Angeles Center
11:28AM 35.6756 -115.5131 78° East 482 555 41,000  Level Los Angeles Center
11:29AM 35.7039 -115.3528 78° East 484 557 41,000  Level Los Angeles Center
11:30AM 35.7314 -115.1944 78° East 479 551 41,000  Level Los Angeles Center
11:31AM 35.7589 -115.0350 78° East 479 551 41,000  Level Los Angeles Center
11:32AM 35.7869 -114.8744 78° East 481 554 41,000  Level Los Angeles Center
11:33AM 35.8203 -114.6789 78° East 486 559 41,000  Level Los Angeles Center
11:34AM 35.8469 -114.5186 78° East 482 555 41,000  Level Los Angeles Center
11:35AM 35.8733 -114.3575 79° East 481 554 41,000  Level Los Angeles Center
11:36AM 35.9008 -114.1956 78° East 483 556 41,000  Level Los Angeles Center
11:37AM 35.9272 -114.0344 79° East 482 555 41,000  Level Los Angeles Center
11:38AM 35.9594 -113.8397 78° East 484 557 41,000  Level Los Angeles Center
11:39AM 35.9856 -113.6769 79° East 484 557 41,000  Level Los Angeles Center
11:40AM 36.0122 -113.5131 79° East 487 560 41,000  Level Los Angeles Center
11:41AM 36.0394 -113.3497 78° East 487 560 41,000  Level Los Angeles Center
11:42AM 36.0664 -113.1758 79° East 489 563 41,000  Level Los Angeles Center
11:43AM 36.0922 -113.0114 79° East 490 564 41,000  Level Los Angeles Center
11:44AM 36.1181 -112.8469 79° East 490 564 41,000  Level Los Angeles Center
11:45AM 36.1478 -112.6489 79° East 491 565 41,000  Level Los Angeles Center
11:46AM 36.1736 -112.4831 79° East 493 567 41,000  Level Los Angeles Center
11:47AM 36.1983 -112.3169 80° East 492 566 41,000  Level Los Angeles Center
11:48AM 36.2228 -112.1517 80° East 491 565 41,000  Level Los Angeles Center
11:49AM 36.2475 -111.9858 79° East 491 565 41,000  Level Los Angeles Center
11:50AM 36.2767 -111.7869 80° East 491 565 41,000  Level Los Angeles Center
11:51AM 36.3006 -111.6194 80° East 496 571 41,000  Level Los Angeles Center
11:52AM 36.3131 -111.5217 81° East 493 567 41,000  Level Denver Center
11:53AM 36.3375 -111.3547 80° East 494 568 41,000  Level Denver Center
11:54AM 36.3644 -111.1531 81° East 496 571 41,000  Level Denver Center
11:55AM 36.3878 -110.9861 80° East 494 568 41,000  Level Denver Center
11:56AM 36.4125 -110.8172 80° East 497 572 41,000  Level Denver Center
11:58AM 36.4330 -110.6269 82° East  Level FlightAware Approximate
11:58AM 36.4564 -110.4828 82° East 494 568 41,000  Level Denver Center
11:59AM 36.4772 -110.3147 81° East 495 570 41,000  Level Denver Center
12:00PM 36.5022 -110.1344 80° East 499 574 41,000  Level Denver Center
12:01PM 36.5258 -109.9447 81° East 498 573 41,000  Level Denver Center
12:03PM 36.5472 -109.7811 81° East 500 575 41,000  Level Denver Center
12:04PM 36.5717 -109.5922 81° East 496 571 41,000  Level Denver Center
12:05PM 36.5911 -109.4286 82° East 498 573 41,000  Level Denver Center
12:06PM 36.6144 -109.2389 81° East 495 570 41,000  Level Denver Center
12:07PM 36.6350 -109.0756 81° East 495 570 41,000  Level Denver Center
12:08PM 36.6594 -108.8831 81° East 499 574 41,000  Level Denver Center
12:09PM 36.6783 -108.7178 82° East 500 575 41,000  Level Denver Center
12:10PM 36.6964 -108.5550 82° East 496 571 41,000  Level Denver Center
12:11PM 36.7189 -108.3636 82° East 497 572 41,000  Level Denver Center
12:12PM 36.7364 -108.2014 82° East 494 568 41,000  Level Denver Center
12:13PM 36.7711 -108.0142 77° East 496 571 41,000  Level Denver Center
12:14PM 36.8142 -107.8594 71° East 495 570 41,000  Level Denver Center
12:15PM 36.8631 -107.6786 71° East 492 566 41,000  Level Denver Center
12:16PM 36.9053 -107.5214 71° East 497 572 41,000  Level Denver Center
12:17PM 36.9544 -107.3400 71° East 494 568 41,000  Level Denver Center
12:18PM 36.9964 -107.1836 71° East 496 571 41,000  Level Denver Center
12:19PM 37.0436 -106.9992 72° East 498 573 41,000  Level Denver Center
12:20PM 37.0858 -106.8436 71° East 495 570 41,000  Level Denver Center
12:21PM 37.1269 -106.6872 72° East 494 568 41,000  Level Denver Center
12:22PM 37.1736 -106.5069 72° East 488 562 41,000  Level Denver Center
12:23PM 37.2150 -106.3525 71° East 487 560 41,000  Level Denver Center
12:24PM 37.2603 -106.1711 73° East 488 562 41,000  Level Denver Center
12:25PM 37.2986 -106.0142 73° East 490 564 41,000  Level Denver Center
12:26PM 37.3439 -105.8322 73° East 490 564 41,000  Level Denver Center
12:27PM 37.3872 -105.6783 70° East 489 563 41,000  Level Denver Center
12:28PM 37.4378 -105.4992 70° East 489 563 41,000  Level Denver Center
12:29PM 37.4828 -105.3456 70° East 488 562 41,000  Level Denver Center
12:30PM 37.5336 -105.1658 70° East 489 563 41,000  Level Denver Center
12:31PM 37.5792 -105.0075 70° East 486 559 41,000  Level Denver Center
12:33PM 37.6206 -104.8539 71° East 484 557 41,000  Level Denver Center
12:34PM 37.6714 -104.6747 70° East 484 557 41,000  Level Denver Center
12:35PM 37.7136 -104.5203 71° East 483 556 41,000  Level Denver Center
12:36PM 37.7625 -104.3394 71° East 483 556 41,000  Level Denver Center
12:37PM 37.8047 -104.1842 71° East 483 556 41,000  Level Denver Center
12:38PM 37.8472 -104.0278 71° East 485 558 41,000  Level Denver Center
12:39PM 37.8950 -103.8481 71° East 480 552 41,000  Level Denver Center
12:40PM 37.9356 -103.6953 71° East 476 548 41,000  Level Denver Center
12:41PM 37.9817 -103.5183 72° East 471 542 41,000  Level Denver Center
12:42PM 38.0225 -103.3661 71° East 474 545 41,000  Level Denver Center
12:43PM 38.0675 -103.1903 72° East 470 541 41,000  Level Denver Center
12:44PM 38.1108 -103.0258 71° East 468 539 41,000  Level Denver Center
12:45PM 38.1497 -102.8742 72° East 473 544 41,000  Level Denver Center
12:46PM 38.1878 -102.7208 72° East 474 545 41,000  Level Denver Center
12:47PM 38.2217 -102.5381 77° East 476 548 41,000  Level Denver Center
12:48PM 38.2483 -102.3797 78° East 478 550 41,000  Level Denver Center
12:49PM 38.2778 -102.1950 78° East 478 550 41,000  Level Denver Center
12:50PM 38.3047 -102.0356 78° East 480 552 41,000  Level Denver Center
12:51PM 38.3342 -101.8503 78° East 479 551 41,000  Level Denver Center
12:52PM 38.3589 -101.6908 79° East 479 551 41,000  Level Denver Center
12:53PM 38.3878 -101.5039 79° East 480 552 41,000  Level Denver Center
12:54PM 38.4133 -101.3428 79° East 482 555 41,000  Level Denver Center
12:55PM 38.4419 -101.1547 79° East 483 556 41,000  Level Denver Center
12:56PM 38.4667 -100.9936 79° East 482 555 41,000  Level Denver Center
12:57PM 38.4903 -100.8339 79° East 479 551 41,000  Level Denver Center
12:58PM 38.5186 -100.6464 79° East 479 551 41,000  Level Denver Center
12:59PM 38.5425 -100.4881 79° East 476 548 41,000  Level Denver Center
01:00PM 38.5700 -100.3028 79° East 474 545 41,000  Level Denver Center
01:01PM 38.5919 -100.1414 80° East 478 550 41,000  Level Denver Center
01:03PM 38.6183 -99.9558 80° East 474 545 41,000  Level Denver Center
01:04PM 38.6406 -99.7969 80° East 474 545 41,000  Level Denver Center
01:05PM 38.6667 -99.6097 80° East 479 551 41,000  Level Denver Center
01:06PM 38.6892 -99.4483 80° East 480 552 41,000  Level Denver Center
01:07PM 38.7142 -99.2611 80° East 479 551 41,000  Level Denver Center
01:08PM 38.7444 -99.0544 79° East 481 554 41,000  Level Kansas City Center
01:09PM 38.7661 -98.8867 81° East 478 550 41,000  Level Kansas City Center
01:10PM 38.7889 -98.7203 80° East 475 547 41,000  Level Kansas City Center
01:11PM 38.8100 -98.5519 81° East 476 548 41,000  Level Kansas City Center
01:12PM 38.8317 -98.3847 81° East 475 547 41,000  Level Kansas City Center
01:13PM 38.8569 -98.1819 81° East 477 549 41,000  Level Kansas City Center
01:14PM 38.8781 -98.0128 81° East 479 551 41,000  Level Kansas City Center
01:15PM 38.8992 -97.8444 81° East 477 549 41,000  Level Kansas City Center
01:16PM 38.9222 -97.6581 81° East 473 544 41,000  Level Kansas City Center
01:17PM 38.9608 -97.4914 73° East 495 570 41,000  Level Kansas City Center
01:18PM 39.0064 -97.3181 71° East 479 551 41,000  Level Kansas City Center
01:19PM 39.0464 -97.1633 72° East 477 549 41,000  Level Kansas City Center
01:20PM 39.0889 -97.0092 70° East 478 550 41,000  Level Kansas City Center
01:21PM 39.1361 -96.8286 71° East 477 549 41,000  Level Kansas City Center
01:22PM 39.1761 -96.6708 72° East 480 552 41,000  Level Kansas City Center
01:23PM 39.2222 -96.4883 72° East 481 554 41,000  Level Kansas City Center
01:25PM 39.2594 -96.3278 73° East 484 557 41,000  Level Kansas City Center
01:26PM 39.3094 -96.1453 70° East 483 556 41,000  Level Kansas City Center
01:27PM 39.3453 -95.9869 74° East 480 552 41,000  Level Kansas City Center
01:28PM 39.3922 -95.8033 72° East 481 554 41,000  Level Kansas City Center
01:29PM 39.4311 -95.6447 72° East 482 555 41,000  Level Kansas City Center
01:30PM 39.4758 -95.4625 72° East 479 551 41,000  Level Kansas City Center
01:31PM 39.5164 -95.2978 72° East 480 552 41,000  Level Kansas City Center
01:32PM 39.5550 -95.1411 72° East 481 554 41,000  Level Kansas City Center
01:33PM 39.5992 -94.9550 73° East 480 552 41,000  Level Kansas City Center
01:34PM 39.6375 -94.7961 73° East 480 552 41,000  Level Kansas City Center
01:35PM 39.6808 -94.6094 73° East 483 556 41,000  Level Kansas City Center
01:36PM 39.7183 -94.4500 73° East 482 555 41,000  Level Kansas City Center
01:37PM 39.7617 -94.2642 73° East 481 554 41,000  Level Kansas City Center
01:38PM 39.7983 -94.1036 73° East 483 556 41,000  Level Kansas City Center
01:39PM 39.8333 -93.9486 74° East 482 555 41,000  Level Kansas City Center
01:40PM 39.8794 -93.7494 73° East 482 555 41,000  Level Kansas City Center
01:41PM 39.9169 -93.5839 73° East 482 555 41,000  Level Kansas City Center
01:42PM 39.9542 -93.4153 74° East 486 559 41,000  Level Kansas City Center
01:43PM 39.9903 -93.2467 74° East 488 562 41,000  Level Kansas City Center
01:44PM 40.0292 -93.0794 73° East 488 562 41,000  Level Kansas City Center
01:45PM 40.0697 -92.8922 74° East 488 562 41,000  Level Kansas City Center
01:46PM 40.1111 -92.7000 74° East 492 566 41,000  Level Kansas City Center
01:47PM 40.1456 -92.5347 75° East 492 566 41,000  Level Kansas City Center
01:48PM 40.1808 -92.3703 74° East 492 566 41,000  Level Kansas City Center
01:49PM 40.2217 -92.1703 75° East 492 566 41,000  Level Kansas City Center
01:50PM 40.2553 -92.0008 75° East 488 562 41,000  Level Kansas City Center
01:51PM 40.2889 -91.8306 75° East 487 560 41,000  Level Kansas City Center
01:52PM 40.3222 -91.6614 75° East 485 558 41,000  Level Kansas City Center
01:53PM 40.3633 -91.4564 75° East 486 559 41,000  Level Kansas City Center
01:55PM 40.3964 -91.2844 76° East 487 560 41,000  Level Kansas City Center
01:56PM 40.4331 -91.1139 74° East 487 560 41,000  Level Chicago Center
01:57PM 40.4661 -90.9411 76° East 489 563 41,000  Level Chicago Center
01:58PM 40.4978 -90.7692 76° East 487 560 41,000  Level Chicago Center
01:59PM 40.5303 -90.5967 76° East 487 560 41,000  Level Chicago Center
02:00PM 40.5714 -90.3914 75° East 486 559 41,000  Level Chicago Center
02:01PM 40.6044 -90.2239 75° East 489 563 41,000  Level Chicago Center
02:02PM 40.6389 -90.0489 75° East 494 568 41,000  Level Chicago Center
02:03PM 40.6728 -89.8742 76° East 496 571 41,000  Level Chicago Center
02:04PM 40.7114 -89.6603 77° East 499 574 41,000  Level Chicago Center
02:05PM 40.7456 -89.4875 75° East 506 582 41,000  Level Chicago Center
02:06PM 40.7786 -89.3097 76° East 503 579 41,000  Level Chicago Center
02:07PM 40.8119 -89.1319 76° East 504 580 41,000  Level Chicago Center
02:08PM 40.8447 -88.9542 76° East 502 578 41,000  Level Chicago Center
02:09PM 40.8833 -88.7392 77° East 497 572 41,000  Level Chicago Center
02:10PM 40.9153 -88.5614 77° East 498 573 41,000  Level Chicago Center
02:11PM 40.9478 -88.3833 76° East 501 577 41,000  Level Chicago Center
02:12PM 40.9792 -88.2039 77° East 506 582 41,000  Level Chicago Center
02:13PM 41.0108 -88.0278 77° East 501 577 41,000  Level Chicago Center
02:14PM 41.0475 -87.8119 77° East 505 581 41,000  Level Chicago Center
02:15PM 41.0781 -87.6333 77° East 505 581 41,000  Level Chicago Center
02:16PM 41.1092 -87.4528 77° East 506 582 41,000  Level Chicago Center
02:17PM 41.1389 -87.2739 78° East 504 580 41,000  Level Chicago Center
02:18PM 41.1756 -87.0561 77° East 508 585 41,000  Level Chicago Center
02:19PM 41.2058 -86.8744 77° East 508 585 41,000  Level Chicago Center
02:20PM 41.2311 -86.7153 78° East 506 582 41,000  Level Chicago Center
02:21PM 41.2658 -86.4961 78° East 507 583 41,000  Level Chicago Center
02:22PM 41.2953 -86.3122 78° East 508 585 41,000  Level Chicago Center
02:23PM 41.3231 -86.1278 79° East 512 589 41,000  Level Chicago Center
02:25PM 41.3517 -85.9442 78° East 511 588 41,000  Level Chicago Center
02:26PM 41.3797 -85.7594 78° East 513 590 41,000  Level Chicago Center
02:27PM 41.4136 -85.5364 78° East 520 598 41,000  Level Chicago Center
02:28PM 41.4408 -85.3542 79° East 516 594 41,000  Level Chicago Center
02:29PM 41.4681 -85.1711 79° East 515 593 41,000  Level Chicago Center
02:30PM 41.4950 -84.9867 79° East 513 590 41,000  Level Chicago Center
02:31PM 41.5272 -84.7653 79° East 511 588 41,000  Level Chicago Center
02:32PM 41.5536 -84.5817 79° East 510 587 41,000  Level Chicago Center
02:33PM 41.5800 -84.3956 79° East 512 589 41,000  Level Chicago Center
02:34PM 41.6058 -84.2108 79° East 509 586 41,000  Level Chicago Center
02:35PM 41.6317 -84.0261 79° East 509 586 41,000  Level Chicago Center
02:36PM 41.6608 -83.8022 80° East 510 587 41,000  Level Chicago Center
02:37PM 41.6903 -83.5686 80° East 509 586 41,000  Level Cleveland Center
02:38PM 41.7156 -83.3822 80° East 512 589 41,000  Level Cleveland Center
02:39PM 41.7386 -83.1969 80° East 511 588 41,000  Level Cleveland Center
02:40PM 41.7639 -83.0100 80° East 513 590 41,000  Level Cleveland Center
02:41PM 41.7864 -82.8228 81° East 514 592 41,000  Level Cleveland Center
02:42PM 41.8156 -82.5967 80° East 517 595 41,000  Level Cleveland Center
02:43PM 41.8381 -82.4083 81° East 516 594 41,000  Level Cleveland Center
02:44PM 41.8606 -82.2189 81° East 517 595 41,000  Level Cleveland Center
02:45PM 41.8831 -82.0208 81° East 512 589 41,000  Level Cleveland Center
02:46PM 41.9058 -81.8317 81° East 508 585 41,000  Level Cleveland Center
02:48PM 41.9283 -81.6425 81° East 506 582 41,000  Level Cleveland Center
02:49PM 41.9486 -81.4542 82° East 504 580 41,000  Level Cleveland Center
02:50PM 41.9697 -81.2669 81° East 502 578 41,000  Level Cleveland Center
02:51PM 41.9944 -81.0447 81° East 508 585 41,000  Level Cleveland Center
02:52PM 42.0153 -80.8558 81° East 507 583 41,000  Level Cleveland Center
02:53PM 42.0358 -80.6658 82° East 509 586 41,000  Level Cleveland Center
02:54PM 42.0567 -80.4753 82° East 509 586 41,000  Level Cleveland Center
02:55PM 42.0750 -80.2842 83° East 510 587 41,000  Level Cleveland Center
02:56PM 42.0944 -80.0911 82° East 515 593 41,000  Level Cleveland Center
02:57PM 42.1169 -79.8769 82° East 512 589 41,000  Level Cleveland Center
02:58PM 42.1347 -79.6867 83° East 514 592 41,000  Level Cleveland Center
02:59PM 42.1533 -79.4967 82° East 514 592 41,000  Level Cleveland Center
03:00PM 42.1708 -79.3083 83° East 510 587 41,000  Level Cleveland Center
03:01PM 42.1933 -79.1167 81° East 514 592 41,000  Level Cleveland Center
03:02PM 42.2231 -78.8908 80° East 514 592 41,000  Level Cleveland Center
03:03PM 42.2469 -78.6992 80° East 518 596 41,000  Level Cleveland Center
03:04PM 42.2703 -78.5106 80° East 514 592 41,000  Level Cleveland Center
03:05PM 42.2933 -78.3225 81° East 511 588 41,000  Level Cleveland Center
03:06PM 42.3161 -78.1364 81° East 508 585 41,000  Level Cleveland Center
03:07PM 42.3436 -77.9133 80° East 507 583 41,000  Level Cleveland Center
03:08PM 42.3653 -77.7258 81° East 513 590 41,000  Level Cleveland Center
03:09PM 42.3875 -77.5392 81° East 513 590 41,000  Level Cleveland Center
03:10PM 42.4083 -77.3519 81° East 513 590 41,000  Level Cleveland Center
03:11PM 42.4333 -77.1275 81° East 509 586 41,000  Level Cleveland Center
03:12PM 42.4533 -76.9386 82° East 509 586 41,000  Level Cleveland Center
03:13PM 42.4739 -76.7503 82° East 511 588 41,000  Level Cleveland Center
03:14PM 42.4942 -76.5617 82° East 509 586 41,000  Level Cleveland Center
03:15PM 42.5156 -76.3567 82° East 506 582 41,000  Level Cleveland Center
03:17PM 42.5342 -76.1656 82° East 513 590 41,000  Level Cleveland Center
03:18PM 42.5528 -75.9758 82° East 513 590 41,000  Level Cleveland Center
03:19PM 42.5614 -75.7853 86° East 509 586 41,000  Level Cleveland Center
03:20PM 42.5378 -75.5561 98° East 514 592 41,000  Level Cleveland Center
03:21PM 42.5181 -75.3653 98° East 514 592 41,000 -240 Level Cleveland Center
03:22PM 42.4997 -75.1750 97° East 515 593 40,600 -1,560 Descending Cleveland Center
03:23PM 42.4789 -74.9875 99° East 510 587 37,800 -2,640 Descending Cleveland Center
03:24PM 42.4564 -74.7586 98° East 512 589 34,700 -2,700 Descending Boston Center
03:25PM 42.4333 -74.5444 98° East 484 557 31,600 -2,520 Descending Boston Center
03:26PM 42.4167 -74.3981 99° East 476 548 29,500 -1,680 Descending Boston Center
03:27PM 42.3947 -74.1911 98° East 466 536 28,300 -1,260 Descending Boston Center
03:28PM 42.3753 -74.0275 99° East 449 517 27,000 -720 Descending Boston Center
03:29PM 42.3575 -73.8658 98° East 440 506 26,900 -960 Descending Boston Center
03:30PM 42.3392 -73.7058 99° East 435 501 25,100 -1,440 Descending Boston Center
03:31PM 42.3203 -73.5467 99° East 429 494 24,000 -900 Descending Boston Center
03:32PM 42.3022 -73.3883 99° East 428 493 23,300 -1,320 Descending Boston Center
03:33PM 42.2678 -73.2444 108° East 422 486 21,400 -2,160 Descending Boston Center
03:34PM 42.1842 -73.1003 128° Southeast 415 478 19,000 -1,200 Descending Boston Center
03:35PM 42.1092 -72.9697 128° Southeast 411 473 19,000  Level Boston Center
03:36PM 42.0372 -72.8506 129° Southeast 410 472 19,000  Level Boston Center
03:37PM 41.9686 -72.7358 129° Southeast 406 467 19,000  Level Boston Center
03:38PM 41.8978 -72.6106 127° Southeast 398 458 19,000 -240 Level Boston Center
03:39PM 41.8536 -72.5306 127° Southeast 385 443 18,600 -1,200 Descending Boston Center
03:39PM 41.8328 -72.4942 128° Southeast 389 448 17,800 -2,340 Descending Boston Center
03:40PM 41.7992 -72.4314 126° Southeast 369 425 16,500 -2,460 Descending Boston Center
03:40PM 41.7669 -72.3769 128° Southeast 369 425 15,300 -2,400 Descending Boston Center
03:41PM 41.7297 -72.3094 126° Southeast 366 421 13,900 -2,340 Descending Boston Center
03:41PM 41.7044 -72.2644 127° Southeast 364 419 12,900 -2,460 Descending Boston Center
03:42PM 41.6686 -72.1997 127° Southeast 361 415 11,400 -1,860 Descending Boston Center
03:42PM 41.6450 -72.1589 128° Southeast 357 411 11,000 -540 Descending Boston Center
03:43PM 41.6228 -72.1189 127° Southeast 352 405 11,000 -240 Level Boston Center
03:43PM 41.5875 -72.0564 127° Southeast 347 399 10,800 -780 Descending Boston Center
03:44PM 41.5603 -72.0261 140° Southeast 314 361 10,200 -1,800 Descending Boston Center
03:44PM 41.5050 -72.0125 170° South 321 369 9,000 -2,040 Descending Boston Center
03:45PM 41.4706 -72.0100 177° South 320 368 8,200 -1,860 Descending Boston Center
03:46PM 41.4200 -72.0017 173° South 310 357 7,100 -1,920 Descending Boston Center
03:46PM 41.3889 -71.9967 173° South 298 343 6,300 -1,200 Descending Boston Center
03:47PM 41.3347 -71.9867 172° South 290 334 5,900 -840 Descending Boston Center
03:47PM 41.3128 -71.9886 184° South 270 311 5,500 -1,080 Descending Boston Center
03:48PM 41.2683 -72.0233 210° Southwest 269 310 4,800 -900 Descending Boston Center
03:49PM 41.2106 -72.0644 208° Southwest 261 300 4,000 -420 Descending Boston Center
03:50PM 41.1503 -72.1078 208° Southwest 249 287 4,000  Level Boston Center
03:51PM 41.0950 -72.1489 209° Southwest 227 261 4,000 -540 Level Boston Center
03:52PM 41.0228 -72.1394 174° South 213 245 3,000 -1,200 Descending Boston Center
03:53PM 40.9756 -72.1469 187° South 185 213 1,700 -1,020 Descending Boston Center
03:54PM 40.9594 -72.1847 241° Southwest 141 162 900 -720 Descending Boston Center
03:55PM 40.9589 -72.2244 269° West 120 138 300 -600 Descending Boston Center